sensor_id;sensor_type;location;lat;lon;timestamp;pressure;altitude;pressure_sealevel;temperature;humidity
27210;BME280;14721;42.668;23.386;2022-09-06T00:02:24;95943.63;;;16.42;83.19
27210;BME280;14721;42.668;23.386;2022-09-06T00:04:57;95940.69;;;16.45;82.10
27210;BME280;14721;42.668;23.386;2022-09-06T00:07:22;95944.06;;;16.47;81.92
27210;BME280;14721;42.668;23.386;2022-09-06T00:09:49;95945.84;;;16.57;81.98
27210;BME280;14721;42.668;23.386;2022-09-06T00:12:16;95942.16;;;16.58;81.77
27210;BME280;14721;42.668;23.386;2022-09-06T00:14:41;95952.56;;;16.63;81.89
27210;BME280;14721;42.668;23.386;2022-09-06T00:17:07;95950.69;;;16.63;81.21
27210;BME280;14721;42.668;23.386;2022-09-06T00:19:32;95947.44;;;16.60;81.59
27210;BME280;14721;42.668;23.386;2022-09-06T00:22:04;95949.31;;;16.69;81.80
27210;BME280;14721;42.668;23.386;2022-09-06T00:24:31;95930.66;;;16.56;81.84
27210;BME280;14721;42.668;23.386;2022-09-06T00:26:59;95945.00;;;16.57;81.67
27210;BME280;14721;42.668;23.386;2022-09-06T00:29:30;95943.63;;;16.42;81.89
27210;BME280;14721;42.668;23.386;2022-09-06T00:31:57;95944.84;;;16.38;82.51
27210;BME280;14721;42.668;23.386;2022-09-06T00:34:29;95942.56;;;16.33;83.01
27210;BME280;14721;42.668;23.386;2022-09-06T00:36:58;95949.22;;;16.29;83.10
27210;BME280;14721;42.668;23.386;2022-09-06T00:39:24;95951.03;;;16.29;83.07
27210;BME280;14721;42.668;23.386;2022-09-06T00:41:51;95941.59;;;16.14;83.32
27210;BME280;14721;42.668;23.386;2022-09-06T00:44:17;95946.28;;;16.12;83.75
27210;BME280;14721;42.668;23.386;2022-09-06T00:46:45;95948.22;;;16.10;83.53
27210;BME280;14721;42.668;23.386;2022-09-06T00:49:22;95945.94;;;16.05;83.62
27210;BME280;14721;42.668;23.386;2022-09-06T00:51:58;95941.53;;;16.04;83.97
27210;BME280;14721;42.668;23.386;2022-09-06T00:54:26;95945.53;;;16.10;83.73
27210;BME280;14721;42.668;23.386;2022-09-06T00:56:53;95940.41;;;16.07;83.64
27210;BME280;14721;42.668;23.386;2022-09-06T00:59:24;95942.13;;;16.08;83.42
27210;BME280;14721;42.668;23.386;2022-09-06T01:01:51;95939.53;;;16.06;83.51
27210;BME280;14721;42.668;23.386;2022-09-06T01:04:17;95951.47;;;16.04;83.97
27210;BME280;14721;42.668;23.386;2022-09-06T01:09:34;95945.72;;;15.97;84.55
27210;BME280;14721;42.668;23.386;2022-09-06T01:20:44;95946.84;;;15.95;85.10
27210;BME280;14721;42.668;23.386;2022-09-06T01:24:06;95951.84;;;15.99;84.70
27210;BME280;14721;42.668;23.386;2022-09-06T01:29:04;95949.59;;;15.84;85.52
27210;BME280;14721;42.668;23.386;2022-09-06T01:31:44;95959.81;;;15.80;85.41
27210;BME280;14721;42.668;23.386;2022-09-06T01:34:28;95955.13;;;15.82;85.47
27210;BME280;14721;42.668;23.386;2022-09-06T01:37:00;95953.41;;;15.81;85.72
27210;BME280;14721;42.668;23.386;2022-09-06T01:39:31;95946.47;;;15.79;85.71
27210;BME280;14721;42.668;23.386;2022-09-06T01:42:12;95947.91;;;15.83;85.44
27210;BME280;14721;42.668;23.386;2022-09-06T01:44:42;95940.19;;;15.78;85.80
27210;BME280;14721;42.668;23.386;2022-09-06T01:47:40;95934.22;;;15.75;86.14
27210;BME280;14721;42.668;23.386;2022-09-06T01:50:43;95935.94;;;15.76;85.99
27210;BME280;14721;42.668;23.386;2022-09-06T01:58:51;95933.81;;;15.59;87.87
27210;BME280;14721;42.668;23.386;2022-09-06T02:04:08;95931.72;;;15.62;87.73
27210;BME280;14721;42.668;23.386;2022-09-06T02:06:42;95925.06;;;15.66;87.53
27210;BME280;14721;42.668;23.386;2022-09-06T02:09:12;95923.50;;;15.64;87.31
27210;BME280;14721;42.668;23.386;2022-09-06T02:12:00;95927.28;;;15.61;87.56
27210;BME280;14721;42.668;23.386;2022-09-06T02:14:31;95922.91;;;15.60;87.49
27210;BME280;14721;42.668;23.386;2022-09-06T02:16:59;95918.63;;;15.58;87.68
27210;BME280;14721;42.668;23.386;2022-09-06T02:19:36;95918.78;;;15.56;87.79
27210;BME280;14721;42.668;23.386;2022-09-06T02:22:09;95913.78;;;15.52;88.24
27210;BME280;14721;42.668;23.386;2022-09-06T02:24:37;95920.38;;;15.48;88.50
27210;BME280;14721;42.668;23.386;2022-09-06T02:27:06;95919.28;;;15.50;88.66
27210;BME280;14721;42.668;23.386;2022-09-06T02:29:33;95923.41;;;15.54;88.69
27210;BME280;14721;42.668;23.386;2022-09-06T02:32:07;95922.44;;;15.55;88.61
27210;BME280;14721;42.668;23.386;2022-09-06T02:34:37;95920.97;;;15.51;88.70
27210;BME280;14721;42.668;23.386;2022-09-06T02:37:11;95913.53;;;15.44;88.50
27210;BME280;14721;42.668;23.386;2022-09-06T02:39:38;95919.72;;;15.55;88.67
27210;BME280;14721;42.668;23.386;2022-09-06T02:42:07;95915.00;;;15.48;88.51
27210;BME280;14721;42.668;23.386;2022-09-06T02:44:34;95922.94;;;15.49;88.60
27210;BME280;14721;42.668;23.386;2022-09-06T02:47:00;95924.84;;;15.58;88.64
27210;BME280;14721;42.668;23.386;2022-09-06T02:49:29;95932.56;;;15.63;88.20
27210;BME280;14721;42.668;23.386;2022-09-06T02:51:56;95928.19;;;15.51;89.32
27210;BME280;14721;42.668;23.386;2022-09-06T02:54:23;95941.03;;;15.58;89.57
27210;BME280;14721;42.668;23.386;2022-09-06T02:56:49;95947.06;;;15.51;89.77
27210;BME280;14721;42.668;23.386;2022-09-06T02:59:15;95936.53;;;15.48;90.33
27210;BME280;14721;42.668;23.386;2022-09-06T03:01:42;95928.25;;;15.40;89.94
27210;BME280;14721;42.668;23.386;2022-09-06T03:04:07;95926.78;;;15.36;90.99
27210;BME280;14721;42.668;23.386;2022-09-06T03:06:33;95933.13;;;15.35;90.90
27210;BME280;14721;42.668;23.386;2022-09-06T03:09:00;95929.38;;;15.37;91.34
27210;BME280;14721;42.668;23.386;2022-09-06T03:11:27;95925.31;;;15.32;90.55
27210;BME280;14721;42.668;23.386;2022-09-06T03:13:53;95928.38;;;15.27;91.21
27210;BME280;14721;42.668;23.386;2022-09-06T03:16:19;95926.47;;;15.18;91.68
27210;BME280;14721;42.668;23.386;2022-09-06T03:18:44;95921.81;;;15.20;91.27
27210;BME280;14721;42.668;23.386;2022-09-06T03:21:11;95931.72;;;15.20;91.42
27210;BME280;14721;42.668;23.386;2022-09-06T03:23:38;95937.34;;;15.17;91.32
27210;BME280;14721;42.668;23.386;2022-09-06T03:26:06;95926.13;;;15.12;91.49
27210;BME280;14721;42.668;23.386;2022-09-06T03:28:34;95936.38;;;15.18;91.25
27210;BME280;14721;42.668;23.386;2022-09-06T03:30:59;95934.47;;;15.08;91.31
27210;BME280;14721;42.668;23.386;2022-09-06T03:33:25;95931.16;;;14.94;92.36
27210;BME280;14721;42.668;23.386;2022-09-06T03:35:56;95940.22;;;14.82;93.19
27210;BME280;14721;42.668;23.386;2022-09-06T03:38:24;95950.41;;;14.78;93.74
27210;BME280;14721;42.668;23.386;2022-09-06T03:40:51;95945.84;;;14.79;94.26
27210;BME280;14721;42.668;23.386;2022-09-06T03:43:20;95958.81;;;14.85;94.08
27210;BME280;14721;42.668;23.386;2022-09-06T03:46:01;95954.31;;;14.85;93.61
27210;BME280;14721;42.668;23.386;2022-09-06T03:48:27;95949.66;;;14.87;93.10
27210;BME280;14721;42.668;23.386;2022-09-06T03:50:55;95951.13;;;14.80;93.62
27210;BME280;14721;42.668;23.386;2022-09-06T03:53:22;95949.53;;;14.78;93.68
27210;BME280;14721;42.668;23.386;2022-09-06T03:55:50;95956.53;;;14.69;94.13
27210;BME280;14721;42.668;23.386;2022-09-06T03:58:19;95943.81;;;14.60;94.65
27210;BME280;14721;42.668;23.386;2022-09-06T04:00:46;95953.47;;;14.63;94.77
27210;BME280;14721;42.668;23.386;2022-09-06T04:03:13;95945.16;;;14.55;95.58
27210;BME280;14721;42.668;23.386;2022-09-06T04:05:44;95948.44;;;14.58;95.19
27210;BME280;14721;42.668;23.386;2022-09-06T04:08:10;95959.59;;;14.65;94.60
27210;BME280;14721;42.668;23.386;2022-09-06T04:10:36;95963.97;;;14.66;94.84
27210;BME280;14721;42.668;23.386;2022-09-06T04:13:03;95959.47;;;14.66;94.77
27210;BME280;14721;42.668;23.386;2022-09-06T04:15:29;95959.59;;;14.65;95.08
27210;BME280;14721;42.668;23.386;2022-09-06T04:17:54;95973.13;;;14.74;94.93
27210;BME280;14721;42.668;23.386;2022-09-06T04:20:20;95966.66;;;14.77;94.78
27210;BME280;14721;42.668;23.386;2022-09-06T04:22:45;95963.84;;;14.78;94.75
27210;BME280;14721;42.668;23.386;2022-09-06T04:25:11;95961.88;;;14.80;94.42
27210;BME280;14721;42.668;23.386;2022-09-06T04:27:38;95954.31;;;14.85;93.98
27210;BME280;14721;42.668;23.386;2022-09-06T04:30:04;95961.88;;;14.91;94.04
27210;BME280;14721;42.668;23.386;2022-09-06T04:32:30;95964.81;;;14.88;94.50
27210;BME280;14721;42.668;23.386;2022-09-06T04:34:57;95966.50;;;15.00;94.10
27210;BME280;14721;42.668;23.386;2022-09-06T04:37:23;95963.19;;;15.08;93.49
27210;BME280;14721;42.668;23.386;2022-09-06T04:39:48;95960.00;;;15.14;93.06
27210;BME280;14721;42.668;23.386;2022-09-06T04:42:14;95961.31;;;15.31;92.17
27210;BME280;14721;42.668;23.386;2022-09-06T04:44:42;95961.44;;;15.40;91.91
27210;BME280;14721;42.668;23.386;2022-09-06T04:47:14;95961.00;;;15.56;91.00
27210;BME280;14721;42.668;23.386;2022-09-06T04:49:42;95967.13;;;15.58;91.13
27210;BME280;14721;42.668;23.386;2022-09-06T04:52:09;95968.91;;;15.68;90.30
27210;BME280;14721;42.668;23.386;2022-09-06T04:54:35;95959.41;;;15.85;89.88
27210;BME280;14721;42.668;23.386;2022-09-06T04:57:03;95953.97;;;16.16;88.45
27210;BME280;14721;42.668;23.386;2022-09-06T04:59:30;95951.91;;;16.29;86.87
27210;BME280;14721;42.668;23.386;2022-09-06T05:01:56;95955.78;;;16.57;86.17
27210;BME280;14721;42.668;23.386;2022-09-06T05:04:21;95959.00;;;17.11;83.65
27210;BME280;14721;42.668;23.386;2022-09-06T05:06:47;95948.47;;;17.86;80.13
27210;BME280;14721;42.668;23.386;2022-09-06T05:09:13;95942.81;;;18.91;76.39
27210;BME280;14721;42.668;23.386;2022-09-06T05:11:39;95959.16;;;19.80;71.58
27210;BME280;14721;42.668;23.386;2022-09-06T05:14:05;95950.28;;;20.74;67.22
27210;BME280;14721;42.668;23.386;2022-09-06T05:16:32;95947.19;;;21.61;63.28
27210;BME280;14721;42.668;23.386;2022-09-06T05:18:57;95936.22;;;22.43;60.18
27210;BME280;14721;42.668;23.386;2022-09-06T05:21:23;95946.34;;;23.21;57.01
27210;BME280;14721;42.668;23.386;2022-09-06T05:23:49;95942.66;;;23.53;55.11
27210;BME280;14721;42.668;23.386;2022-09-06T05:26:17;95939.09;;;23.83;54.75
27210;BME280;14721;42.668;23.386;2022-09-06T05:28:42;95927.19;;;24.29;52.37
27210;BME280;14721;42.668;23.386;2022-09-06T05:31:25;95928.88;;;24.53;51.70
27210;BME280;14721;42.668;23.386;2022-09-06T05:33:52;95932.63;;;24.74;50.29
27210;BME280;14721;42.668;23.386;2022-09-06T05:36:18;95928.97;;;24.82;50.50
27210;BME280;14721;42.668;23.386;2022-09-06T05:38:44;95932.00;;;25.01;49.52
27210;BME280;14721;42.668;23.386;2022-09-06T05:41:10;95940.69;;;25.19;48.93
27210;BME280;14721;42.668;23.386;2022-09-06T05:43:36;95941.69;;;25.41;48.09
27210;BME280;14721;42.668;23.386;2022-09-06T05:46:02;95940.25;;;25.45;48.08
27210;BME280;14721;42.668;23.386;2022-09-06T05:48:29;95911.88;;;25.46;46.81
27210;BME280;14721;42.668;23.386;2022-09-06T05:51:02;95934.59;;;25.61;47.50
27210;BME280;14721;42.668;23.386;2022-09-06T05:56:00;95925.81;;;25.22;47.91
27210;BME280;14721;42.668;23.386;2022-09-06T05:58:26;95928.94;;;25.48;47.38
27210;BME280;14721;42.668;23.386;2022-09-06T06:00:51;95930.63;;;25.63;47.54
27210;BME280;14721;42.668;23.386;2022-09-06T06:03:20;95923.72;;;25.67;47.19
27210;BME280;14721;42.668;23.386;2022-09-06T06:05:46;95923.19;;;25.93;46.88
27210;BME280;14721;42.668;23.386;2022-09-06T06:08:11;95926.88;;;26.21;46.22
27210;BME280;14721;42.668;23.386;2022-09-06T06:10:37;95923.84;;;26.31;46.32
27210;BME280;14721;42.668;23.386;2022-09-06T06:13:04;95915.50;;;26.39;45.48
27210;BME280;14721;42.668;23.386;2022-09-06T06:15:33;95914.50;;;26.46;45.91
27210;BME280;14721;42.668;23.386;2022-09-06T06:18:00;95912.47;;;26.55;45.28
27210;BME280;14721;42.668;23.386;2022-09-06T06:20:26;95914.06;;;26.64;45.09
27210;BME280;14721;42.668;23.386;2022-09-06T06:22:55;95908.53;;;26.85;44.31
27210;BME280;14721;42.668;23.386;2022-09-06T06:25:37;95915.31;;;26.89;44.02
27210;BME280;14721;42.668;23.386;2022-09-06T06:28:03;95906.59;;;27.06;43.86
27210;BME280;14721;42.668;23.386;2022-09-06T06:30:31;95907.00;;;27.31;42.95
27210;BME280;14721;42.668;23.386;2022-09-06T06:32:59;95905.00;;;27.52;41.86
27210;BME280;14721;42.668;23.386;2022-09-06T06:35:28;95914.19;;;27.73;42.14
27210;BME280;14721;42.668;23.386;2022-09-06T06:37:55;95911.81;;;27.63;42.12
27210;BME280;14721;42.668;23.386;2022-09-06T06:40:28;95912.00;;;28.02;41.18
27210;BME280;14721;42.668;23.386;2022-09-06T06:43:03;95912.78;;;27.90;41.33
27210;BME280;14721;42.668;23.386;2022-09-06T06:45:29;95896.22;;;28.37;40.83
27210;BME280;14721;42.668;23.386;2022-09-06T06:47:56;95912.59;;;28.58;40.50
27210;BME280;14721;42.668;23.386;2022-09-06T06:50:24;95889.66;;;28.31;39.79
27210;BME280;14721;42.668;23.386;2022-09-06T06:52:51;95903.22;;;28.39;39.88
27210;BME280;14721;42.668;23.386;2022-09-06T06:55:22;95910.59;;;28.32;39.96
27210;BME280;14721;42.668;23.386;2022-09-06T06:57:48;95906.75;;;28.27;40.46
27210;BME280;14721;42.668;23.386;2022-09-06T07:00:14;95910.03;;;28.63;39.70
27210;BME280;14721;42.668;23.386;2022-09-06T07:02:40;95909.19;;;28.75;39.49
27210;BME280;14721;42.668;23.386;2022-09-06T07:05:09;95906.25;;;28.83;39.61
27210;BME280;14721;42.668;23.386;2022-09-06T07:07:35;95910.19;;;28.35;40.10
27210;BME280;14721;42.668;23.386;2022-09-06T07:10:01;95910.25;;;28.55;40.00
27210;BME280;14721;42.668;23.386;2022-09-06T07:12:26;95914.28;;;28.78;39.33
27210;BME280;14721;42.668;23.386;2022-09-06T07:14:52;95909.84;;;28.90;39.49
27210;BME280;14721;42.668;23.386;2022-09-06T07:17:21;95913.47;;;29.10;38.49
27210;BME280;14721;42.668;23.386;2022-09-06T07:19:46;95908.81;;;29.04;39.06
27210;BME280;14721;42.668;23.386;2022-09-06T07:22:12;95915.53;;;29.28;38.58
27210;BME280;14721;42.668;23.386;2022-09-06T07:24:37;95915.69;;;29.66;37.21
27210;BME280;14721;42.668;23.386;2022-09-06T07:27:03;95912.88;;;29.79;37.14
27210;BME280;14721;42.668;23.386;2022-09-06T07:29:29;95914.53;;;29.93;37.11
27210;BME280;14721;42.668;23.386;2022-09-06T07:31:55;95906.34;;;29.67;37.20
27210;BME280;14721;42.668;23.386;2022-09-06T07:34:22;95922.66;;;29.75;36.73
27210;BME280;14721;42.668;23.386;2022-09-06T07:36:57;95920.41;;;30.03;36.19
27210;BME280;14721;42.668;23.386;2022-09-06T07:39:22;95917.53;;;29.85;35.77
27210;BME280;14721;42.668;23.386;2022-09-06T07:41:48;95918.75;;;30.02;37.12
27210;BME280;14721;42.668;23.386;2022-09-06T07:44:13;95906.16;;;29.49;36.44
27210;BME280;14721;42.668;23.386;2022-09-06T07:46:40;95919.91;;;29.75;37.01
27210;BME280;14721;42.668;23.386;2022-09-06T07:49:08;95912.81;;;29.98;36.21
27210;BME280;14721;42.668;23.386;2022-09-06T07:51:33;95914.88;;;30.09;36.75
27210;BME280;14721;42.668;23.386;2022-09-06T07:53:59;95917.63;;;30.16;35.49
27210;BME280;14721;42.668;23.386;2022-09-06T07:56:25;95911.59;;;29.88;36.01
27210;BME280;14721;42.668;23.386;2022-09-06T07:58:52;95908.50;;;30.22;36.43
27210;BME280;14721;42.668;23.386;2022-09-06T08:01:23;95917.41;;;30.55;35.34
27210;BME280;14721;42.668;23.386;2022-09-06T08:03:49;95904.88;;;30.59;35.13
27210;BME280;14721;42.668;23.386;2022-09-06T08:06:14;95890.00;;;30.60;35.35
27210;BME280;14721;42.668;23.386;2022-09-06T08:08:40;95902.09;;;30.59;35.52
27210;BME280;14721;42.668;23.386;2022-09-06T08:11:06;95898.78;;;30.81;34.42
27210;BME280;14721;42.668;23.386;2022-09-06T08:13:35;95896.81;;;30.88;34.47
27210;BME280;14721;42.668;23.386;2022-09-06T08:16:06;95899.78;;;30.87;34.18
27210;BME280;14721;42.668;23.386;2022-09-06T08:18:33;95893.41;;;30.86;34.66
27210;BME280;14721;42.668;23.386;2022-09-06T08:23:37;95895.72;;;31.14;33.63
27210;BME280;14721;42.668;23.386;2022-09-06T08:26:04;95905.38;;;31.05;34.57
27210;BME280;14721;42.668;23.386;2022-09-06T08:28:29;95899.97;;;30.92;33.78
27210;BME280;14721;42.668;23.386;2022-09-06T08:31:04;95899.88;;;30.98;34.25
27210;BME280;14721;42.668;23.386;2022-09-06T08:33:29;95894.38;;;30.74;34.38
27210;BME280;14721;42.668;23.386;2022-09-06T08:35:56;95890.72;;;31.05;34.47
27210;BME280;14721;42.668;23.386;2022-09-06T08:38:22;95887.13;;;31.04;34.79
27210;BME280;14721;42.668;23.386;2022-09-06T08:40:50;95884.91;;;30.88;34.93
27210;BME280;14721;42.668;23.386;2022-09-06T08:43:19;95883.69;;;30.84;34.20
27210;BME280;14721;42.668;23.386;2022-09-06T08:45:49;95871.72;;;31.15;33.04
27210;BME280;14721;42.668;23.386;2022-09-06T08:48:17;95871.06;;;31.19;32.85
27210;BME280;14721;42.668;23.386;2022-09-06T08:53:41;95860.91;;;30.33;34.11
27210;BME280;14721;42.668;23.386;2022-09-06T08:56:22;95860.28;;;29.93;34.48
27210;BME280;14721;42.668;23.386;2022-09-06T09:01:31;95851.59;;;29.33;37.14
27210;BME280;14721;42.668;23.386;2022-09-06T09:04:02;95840.00;;;28.85;37.18
27210;BME280;14721;42.668;23.386;2022-09-06T09:06:31;95851.66;;;28.80;37.96
27210;BME280;14721;42.668;23.386;2022-09-06T09:09:05;95842.50;;;28.34;38.90
27210;BME280;14721;42.668;23.386;2022-09-06T09:11:32;95833.00;;;28.17;38.20
27210;BME280;14721;42.668;23.386;2022-09-06T09:16:55;95826.19;;;27.94;39.90
27210;BME280;14721;42.668;23.386;2022-09-06T09:19:23;95824.03;;;27.83;40.44
27210;BME280;14721;42.668;23.386;2022-09-06T09:21:55;95822.63;;;27.46;38.71
27210;BME280;14721;42.668;23.386;2022-09-06T09:24:21;95824.94;;;27.08;39.09
27210;BME280;14721;42.668;23.386;2022-09-06T09:26:51;95821.53;;;26.45;39.72
27210;BME280;14721;42.668;23.386;2022-09-06T09:29:19;95813.34;;;26.24;40.00
27210;BME280;14721;42.668;23.386;2022-09-06T09:31:48;95812.22;;;26.18;40.59
27210;BME280;14721;42.668;23.386;2022-09-06T09:34:32;95813.66;;;26.14;41.50
27210;BME280;14721;42.668;23.386;2022-09-06T09:37:12;95806.03;;;25.89;42.00
27210;BME280;14721;42.668;23.386;2022-09-06T09:39:43;95800.97;;;26.07;41.70
27210;BME280;14721;42.668;23.386;2022-09-06T09:42:08;95802.81;;;26.27;41.60
27210;BME280;14721;42.668;23.386;2022-09-06T09:44:41;95799.66;;;26.24;41.18
27210;BME280;14721;42.668;23.386;2022-09-06T09:47:34;95797.56;;;26.05;40.91
27210;BME280;14721;42.668;23.386;2022-09-06T09:50:01;95795.97;;;25.74;41.77
27210;BME280;14721;42.668;23.386;2022-09-06T09:52:47;95798.66;;;25.68;41.53
27210;BME280;14721;42.668;23.386;2022-09-06T09:55:12;95791.34;;;25.75;41.11
27210;BME280;14721;42.668;23.386;2022-09-06T09:57:43;95795.84;;;25.83;40.41
27210;BME280;14721;42.668;23.386;2022-09-06T10:00:10;95785.31;;;26.01;40.95
27210;BME280;14721;42.668;23.386;2022-09-06T10:02:39;95796.84;;;26.17;41.13
27210;BME280;14721;42.668;23.386;2022-09-06T10:07:52;95775.34;;;26.42;41.17
27210;BME280;14721;42.668;23.386;2022-09-06T10:10:35;95772.50;;;26.56;40.04
27210;BME280;14721;42.668;23.386;2022-09-06T10:13:24;95774.50;;;26.69;39.53
27210;BME280;14721;42.668;23.386;2022-09-06T10:15:59;95762.53;;;26.49;39.06
27210;BME280;14721;42.668;23.386;2022-09-06T10:18:28;95769.81;;;26.35;39.12
27210;BME280;14721;42.668;23.386;2022-09-06T10:21:16;95766.59;;;26.32;38.79
27210;BME280;14721;42.668;23.386;2022-09-06T10:26:51;95753.22;;;25.52;40.09
27210;BME280;14721;42.668;23.386;2022-09-06T10:34:40;95757.41;;;25.48;38.41
27210;BME280;14721;42.668;23.386;2022-09-06T10:37:44;95755.75;;;25.18;38.87
27210;BME280;14721;42.668;23.386;2022-09-06T10:40:25;95750.34;;;25.39;39.08
27210;BME280;14721;42.668;23.386;2022-09-06T10:42:56;95753.69;;;25.35;37.54
27210;BME280;14721;42.668;23.386;2022-09-06T10:50:49;95740.00;;;25.35;38.04
27210;BME280;14721;42.668;23.386;2022-09-06T10:56:07;95741.00;;;25.69;37.94
27210;BME280;14721;42.668;23.386;2022-09-06T10:58:47;95732.38;;;25.94;37.35
27210;BME280;14721;42.668;23.386;2022-09-06T11:01:26;95724.38;;;26.20;36.51
27210;BME280;14721;42.668;23.386;2022-09-06T11:03:59;95724.22;;;26.28;35.41
27210;BME280;14721;42.668;23.386;2022-09-06T11:06:30;95724.47;;;26.33;35.90
27210;BME280;14721;42.668;23.386;2022-09-06T11:09:21;95726.25;;;26.47;35.08
27210;BME280;14721;42.668;23.386;2022-09-06T11:12:17;95723.63;;;26.32;34.37
27210;BME280;14721;42.668;23.386;2022-09-06T11:14:47;95723.56;;;26.26;35.01
27210;BME280;14721;42.668;23.386;2022-09-06T11:20:07;95724.38;;;26.20;34.53
27210;BME280;14721;42.668;23.386;2022-09-06T11:22:44;95718.34;;;26.31;34.09
27210;BME280;14721;42.668;23.386;2022-09-06T11:25:32;95720.28;;;26.37;34.42
27210;BME280;14721;42.668;23.386;2022-09-06T11:28:07;95709.97;;;26.39;33.53
27210;BME280;14721;42.668;23.386;2022-09-06T11:30:34;95714.94;;;26.29;35.00
27210;BME280;14721;42.668;23.386;2022-09-06T11:33:29;95709.66;;;26.21;35.54
27210;BME280;14721;42.668;23.386;2022-09-06T11:36:23;95716.56;;;26.17;34.43
27210;BME280;14721;42.668;23.386;2022-09-06T11:38:58;95717.91;;;26.00;35.78
27210;BME280;14721;42.668;23.386;2022-09-06T11:41:40;95712.94;;;25.89;35.93
27210;BME280;14721;42.668;23.386;2022-09-06T11:44:08;95705.91;;;26.01;35.88
27210;BME280;14721;42.668;23.386;2022-09-06T11:46:56;95700.22;;;26.02;36.58
27210;BME280;14721;42.668;23.386;2022-09-06T11:49:31;95708.09;;;26.12;36.61
27210;BME280;14721;42.668;23.386;2022-09-06T11:51:57;95693.94;;;26.08;36.08
27210;BME280;14721;42.668;23.386;2022-09-06T11:54:28;95692.50;;;25.91;36.29
27210;BME280;14721;42.668;23.386;2022-09-06T11:57:01;95686.78;;;26.07;36.52
27210;BME280;14721;42.668;23.386;2022-09-06T12:07:28;95679.19;;;26.71;34.80
27210;BME280;14721;42.668;23.386;2022-09-06T12:09:55;95680.75;;;26.86;33.90
27210;BME280;14721;42.668;23.386;2022-09-06T12:12:42;95669.81;;;26.99;33.73
27210;BME280;14721;42.668;23.386;2022-09-06T12:15:43;95674.75;;;27.23;34.05
27210;BME280;14721;42.668;23.386;2022-09-06T12:24:05;95672.69;;;26.10;38.79
27210;BME280;14721;42.668;23.386;2022-09-06T12:26:48;95666.56;;;26.08;39.19
27210;BME280;14721;42.668;23.386;2022-09-06T12:29:22;95665.34;;;25.90;38.92
27210;BME280;14721;42.668;23.386;2022-09-06T12:31:59;95665.09;;;25.85;39.16
27210;BME280;14721;42.668;23.386;2022-09-06T12:34:30;95674.69;;;25.74;38.84
27210;BME280;14721;42.668;23.386;2022-09-06T12:37:06;95661.34;;;25.64;39.37
27210;BME280;14721;42.668;23.386;2022-09-06T12:39:33;95668.34;;;25.67;39.51
27210;BME280;14721;42.668;23.386;2022-09-06T12:42:01;95666.28;;;25.75;39.53
27210;BME280;14721;42.668;23.386;2022-09-06T12:44:46;95653.38;;;25.97;39.02
27210;BME280;14721;42.668;23.386;2022-09-06T12:47:19;95660.59;;;25.98;38.39
27210;BME280;14721;42.668;23.386;2022-09-06T12:50:13;95655.25;;;25.90;38.99
27210;BME280;14721;42.668;23.386;2022-09-06T12:52:52;95651.47;;;25.63;38.93
27210;BME280;14721;42.668;23.386;2022-09-06T12:55:34;95650.56;;;25.35;39.51
27210;BME280;14721;42.668;23.386;2022-09-06T12:58:03;95642.19;;;25.37;39.69
27210;BME280;14721;42.668;23.386;2022-09-06T13:00:46;95642.69;;;25.47;39.52
27210;BME280;14721;42.668;23.386;2022-09-06T13:06:20;95633.34;;;25.20;39.48
27210;BME280;14721;42.668;23.386;2022-09-06T13:08:52;95634.25;;;25.06;39.86
27210;BME280;14721;42.668;23.386;2022-09-06T13:11:38;95626.06;;;25.06;40.31
27210;BME280;14721;42.668;23.386;2022-09-06T13:14:11;95646.09;;;25.13;39.74
27210;BME280;14721;42.668;23.386;2022-09-06T13:16:43;95644.94;;;25.22;39.75
27210;BME280;14721;42.668;23.386;2022-09-06T13:19:14;95633.66;;;25.11;40.26
27210;BME280;14721;42.668;23.386;2022-09-06T13:21:43;95636.91;;;25.21;40.73
27210;BME280;14721;42.668;23.386;2022-09-06T13:24:21;95641.50;;;25.35;40.61
27210;BME280;14721;42.668;23.386;2022-09-06T13:26:48;95641.78;;;25.25;40.74
27210;BME280;14721;42.668;23.386;2022-09-06T13:31:47;95634.94;;;24.94;40.81
27210;BME280;14721;42.668;23.386;2022-09-06T13:34:32;95645.16;;;24.85;40.47
27210;BME280;14721;42.668;23.386;2022-09-06T13:37:06;95646.50;;;24.75;40.68
27210;BME280;14721;42.668;23.386;2022-09-06T13:39:36;95641.13;;;24.81;40.23
27210;BME280;14721;42.668;23.386;2022-09-06T13:44:41;95654.53;;;24.76;40.02
27210;BME280;14721;42.668;23.386;2022-09-06T13:47:06;95641.53;;;24.78;40.00
27210;BME280;14721;42.668;23.386;2022-09-06T13:49:32;95644.25;;;24.78;40.18
27210;BME280;14721;42.668;23.386;2022-09-06T13:52:00;95645.28;;;24.77;40.17
27210;BME280;14721;42.668;23.386;2022-09-06T13:54:27;95636.91;;;24.64;40.44
27210;BME280;14721;42.668;23.386;2022-09-06T13:56:54;95629.75;;;24.63;40.54
27210;BME280;14721;42.668;23.386;2022-09-06T13:59:20;95638.50;;;24.59;40.48
27210;BME280;14721;42.668;23.386;2022-09-06T14:01:49;95636.06;;;24.49;40.26
27210;BME280;14721;42.668;23.386;2022-09-06T14:04:19;95634.78;;;24.45;40.45
27210;BME280;14721;42.668;23.386;2022-09-06T14:06:46;95627.88;;;24.49;40.47
27210;BME280;14721;42.668;23.386;2022-09-06T14:09:13;95619.53;;;24.36;40.89
27210;BME280;14721;42.668;23.386;2022-09-06T14:11:39;95624.00;;;24.58;40.76
27210;BME280;14721;42.668;23.386;2022-09-06T14:14:05;95612.34;;;24.50;40.55
27210;BME280;14721;42.668;23.386;2022-09-06T14:16:32;95612.41;;;24.56;40.37
27210;BME280;14721;42.668;23.386;2022-09-06T14:18:58;95619.59;;;24.57;40.40
27210;BME280;14721;42.668;23.386;2022-09-06T14:21:24;95620.88;;;24.61;40.80
27210;BME280;14721;42.668;23.386;2022-09-06T14:23:50;95601.38;;;24.64;40.58
27210;BME280;14721;42.668;23.386;2022-09-06T14:26:18;95621.44;;;24.71;40.68
27210;BME280;14721;42.668;23.386;2022-09-06T14:28:47;95598.28;;;24.67;40.94